Time;durP1;ratioP1;P1;durP2;ratioP2;P2;SDS_P1;SDS_P2;PMS_P1;PMS_P2;Temp;Humidity;BMP_temperature;BMP_pressure;BME280_temperature;BME280_humidity;BME280_pressure;Samples;Min_cycle;Max_cycle;Signal;HPM_P1;HPM_P2
2023/07/18 00:00:36;;;;;;;4.30;3.10;;;;;;;15.09;76.99;99542.23;106540;1268;24925;-46
2023/07/18 00:03:24;;;;;;;5.60;3.60;;;;;;;15.04;77.15;99542.73;106517;1270;99791;-45
2023/07/18 00:05:54;;;;;;;6.00;2.90;;;;;;;14.98;77.12;99538.89;106889;1273;25424;-45
2023/07/18 00:08:23;;;;;;;5.40;3.00;;;;;;;14.92;77.10;99537.56;106811;1277;22681;-46
2023/07/18 00:10:52;;;;;;;5.20;3.00;;;;;;;14.87;77.27;99531.63;106602;1277;99150;-46
2023/07/18 00:13:22;;;;;;;5.60;3.40;;;;;;;14.82;77.30;99534.23;106971;1272;22524;-49
2023/07/18 00:15:51;;;;;;;5.10;3.00;;;;;;;14.76;77.25;99534.29;106519;1273;99175;-44
2023/07/18 00:18:21;;;;;;;4.40;2.80;;;;;;;14.69;77.38;99542.11;106726;1274;25607;-45
2023/07/18 00:20:50;;;;;;;5.20;3.00;;;;;;;14.64;77.72;99545.76;106695;1260;26521;-45
2023/07/18 00:23:19;;;;;;;3.40;2.60;;;;;;;14.60;77.69;99541.17;106603;1271;99328;-45
2023/07/18 00:25:48;;;;;;;3.20;2.50;;;;;;;14.51;77.71;99533.07;106697;1272;25381;-45
2023/07/18 00:28:17;;;;;;;5.20;2.80;;;;;;;14.46;77.64;99532.73;106447;1276;99644;-46
2023/07/18 00:30:45;;;;;;;4.70;3.00;;;;;;;14.41;77.83;99529.73;106836;1277;25339;-44
2023/07/18 00:33:14;;;;;;;4.80;2.90;;;;;;;14.37;77.92;99520.77;106663;1271;99852;-44
2023/07/18 00:35:43;;;;;;;6.70;3.40;;;;;;;14.33;77.96;99521.02;106755;1269;25243;-44
2023/07/18 00:38:12;;;;;;;4.70;2.40;;;;;;;14.29;78.01;99521.08;106873;1277;25243;-46
2023/07/18 00:40:41;;;;;;;4.00;2.50;;;;;;;14.24;78.00;99515.30;106633;1273;99340;-45
2023/07/18 00:43:16;;;;;;;6.50;2.60;;;;;;;14.17;78.59;99530.80;106594;1273;22925;-45
2023/07/18 00:45:49;;;;;;;3.40;2.30;;;;;;;14.15;78.65;99538.50;106859;1275;99709;-45
2023/07/18 00:48:18;;;;;;;5.10;2.80;;;;;;;14.13;79.13;99550.16;106555;1275;22525;-46
2023/07/18 00:50:47;;;;;;;5.80;2.80;;;;;;;14.11;78.67;99551.84;106706;1270;22694;-44
2023/07/18 00:53:16;;;;;;;9.10;2.70;;;;;;;14.09;78.82;99556.46;106910;1270;98953;-45
2023/07/18 00:55:45;;;;;;;8.70;2.40;;;;;;;14.09;79.13;99555.98;106744;1262;22998;-47
2023/07/18 00:58:15;;;;;;;7.30;2.50;;;;;;;14.08;79.24;99557.39;106612;1270;99307;-48
2023/07/18 01:00:44;;;;;;;7.20;2.30;;;;;;;14.12;79.40;99559.49;106614;1270;24317;-46
2023/07/18 01:03:13;;;;;;;4.80;2.70;;;;;;;14.18;79.76;99561.06;106597;1275;99359;-45
2023/07/18 01:05:43;;;;;;;4.40;2.50;;;;;;;14.26;79.90;99565.41;106765;1270;22557;-46
2023/07/18 01:08:12;;;;;;;4.00;2.60;;;;;;;14.34;79.78;99565.26;106607;1271;24265;-44
2023/07/18 01:10:41;;;;;;;5.20;2.50;;;;;;;14.40;80.09;99572.87;106634;1278;99811;-45
2023/07/18 01:13:13;;;;;;;6.10;2.90;;;;;;;14.46;79.89;99580.02;106665;1274;25295;-44
2023/07/18 01:15:43;;;;;;;5.30;2.30;;;;;;;14.52;80.16;99591.36;106591;1274;99380;-46
2023/07/18 01:18:13;;;;;;;4.50;1.70;;;;;;;14.52;80.02;99606.79;106791;1272;22885;-45
2023/07/18 01:20:45;;;;;;;4.90;2.10;;;;;;;14.34;79.70;99613.75;106601;1270;24333;-45
2023/07/18 01:23:14;;;;;;;4.10;1.50;;;;;;;14.05;80.24;99618.89;106518;1277;98982;-45
2023/07/18 01:25:43;;;;;;;2.10;1.10;;;;;;;13.80;80.24;99630.45;106613;1277;26557;-44
2023/07/18 01:28:12;;;;;;;2.80;1.20;;;;;;;13.56;80.06;99633.48;106496;1270;99116;-45
2023/07/18 01:30:40;;;;;;;5.30;1.10;;;;;;;13.35;80.42;99642.50;106575;1273;26836;-44
2023/07/18 01:33:11;;;;;;;2.10;1.00;;;;;;;13.11;80.38;99643.48;106650;1270;99639;-44
2023/07/18 01:35:39;;;;;;;5.00;0.90;;;;;;;12.97;80.60;99646.94;106694;1264;28118;-43
2023/07/18 01:38:08;;;;;;;1.70;0.70;;;;;;;12.88;80.71;99644.02;106420;1270;23911;-44
2023/07/18 01:40:37;;;;;;;1.50;0.70;;;;;;;12.73;80.45;99648.83;106538;1274;99331;-44
2023/07/18 01:43:05;;;;;;;2.00;0.60;;;;;;;12.65;80.83;99647.92;106743;1271;24332;-45
2023/07/18 01:45:34;;;;;;;1.30;0.90;;;;;;;12.64;81.59;99641.85;106608;1273;99261;-44
2023/07/18 01:48:03;;;;;;;1.70;0.80;;;;;;;12.64;81.29;99635.23;106704;1270;24298;-45
2023/07/18 01:50:32;;;;;;;1.90;0.80;;;;;;;12.63;81.32;99629.70;106774;1269;25287;-44
2023/07/18 01:53:01;;;;;;;3.10;0.70;;;;;;;12.62;81.44;99621.35;106781;1270;99729;-44
2023/07/18 01:55:29;;;;;;;2.20;0.90;;;;;;;12.61;81.42;99625.44;106805;1271;25491;-44
2023/07/18 01:57:58;;;;;;;1.70;0.90;;;;;;;12.60;81.59;99619.73;106737;1274;99154;-44
2023/07/18 02:00:27;;;;;;;1.20;0.90;;;;;;;12.60;81.42;99614.69;106924;1269;22534;-45
2023/07/18 02:02:57;;;;;;;1.30;0.90;;;;;;;12.56;81.58;99618.91;106628;1273;99420;-44
2023/07/18 02:05:30;;;;;;;2.70;0.80;;;;;;;12.57;81.83;99618.15;106667;1270;22511;-43
2023/07/18 02:07:59;;;;;;;2.00;0.90;;;;;;;12.56;82.14;99620.16;106736;1270;23814;-46
2023/07/18 02:10:28;;;;;;;1.70;0.70;;;;;;;12.54;82.25;99623.19;106730;1269;99181;-44
2023/07/18 02:13:01;;;;;;;1.20;0.90;;;;;;;12.54;83.02;99616.91;106850;1270;25412;-44
2023/07/18 02:15:30;;;;;;;1.20;0.80;;;;;;;12.53;82.56;99617.89;106471;1276;99909;-45
2023/07/18 02:17:59;;;;;;;1.00;0.70;;;;;;;12.50;82.51;99615.26;106755;1276;25405;-45
2023/07/18 02:20:28;;;;;;;3.10;0.90;;;;;;;12.50;82.72;99607.77;106561;1273;22596;-43
2023/07/18 02:22:56;;;;;;;5.20;1.20;;;;;;;12.50;83.62;99606.89;106853;1270;99333;-45
2023/07/18 02:25:26;;;;;;;2.60;1.10;;;;;;;12.47;84.59;99599.37;107090;1271;22654;-44
2023/07/18 02:27:55;;;;;;;2.00;0.70;;;;;;;12.43;84.15;99610.95;106847;1274;99705;-47
2023/07/18 02:30:24;;;;;;;2.00;1.30;;;;;;;12.37;84.05;99612.12;106750;1273;25373;-45
2023/07/18 02:32:53;;;;;;;3.00;1.00;;;;;;;12.32;84.29;99620.45;106824;1270;22608;-48
2023/07/18 02:35:23;;;;;;;1.70;1.00;;;;;;;12.30;84.26;99624.17;107134;1266;22543;-45
2023/07/18 02:37:52;;;;;;;5.70;1.10;;;;;;;12.34;84.44;99639.56;106669;1272;25291;-46
2023/07/18 02:40:21;;;;;;;5.00;1.30;;;;;;;12.37;84.76;99642.17;106851;1271;99326;-44
2023/07/18 02:42:50;;;;;;;3.50;1.40;;;;;;;12.36;85.15;99617.78;106798;1271;23781;-44
2023/07/18 02:45:18;;;;;;;3.20;1.30;;;;;;;12.23;84.73;99610.96;106762;1273;99231;-45
2023/07/18 02:47:47;;;;;;;4.30;1.10;;;;;;;12.14;84.85;99612.89;106798;1274;25373;-45
2023/07/18 02:50:16;;;;;;;6.70;1.20;;;;;;;12.08;84.89;99622.67;106716;1274;25193;-45
2023/07/18 02:52:46;;;;;;;4.60;1.30;;;;;;;12.02;84.79;99619.50;106749;1276;99323;-44
2023/07/18 02:55:15;;;;;;;3.50;1.30;;;;;;;11.96;84.90;99621.22;106659;1273;22585;-44
2023/07/18 02:57:44;;;;;;;4.10;1.30;;;;;;;11.93;85.06;99625.06;106605;1269;99105;-45
2023/07/18 03:00:25;;;;;;;4.30;1.30;;;;;;;11.90;84.94;99621.38;106829;1273;24209;-46
2023/07/18 03:02:54;;;;;;;2.90;1.00;;;;;;;11.84;84.90;99615.91;106737;1269;22546;-44
2023/07/18 03:05:24;;;;;;;6.60;0.80;;;;;;;11.80;84.99;99621.34;106722;1274;22679;-43
2023/07/18 03:07:54;;;;;;;2.00;0.80;;;;;;;11.76;85.15;99618.59;106851;1270;22524;-44
2023/07/18 03:10:24;;;;;;;1.70;0.90;;;;;;;11.74;85.32;99623.75;106637;1270;99614;-44
2023/07/18 03:12:53;;;;;;;2.70;1.00;;;;;;;11.78;85.54;99625.48;106842;1270;22527;-44
2023/07/18 03:15:22;;;;;;;4.20;0.90;;;;;;;11.84;85.87;99619.90;106453;1261;99193;-44
2023/07/18 03:17:50;;;;;;;2.30;0.90;;;;;;;11.94;86.19;99622.05;106651;1276;25351;-43
2023/07/18 03:20:19;;;;;;;5.70;1.20;;;;;;;12.01;86.51;99615.02;106740;1270;25497;-44
2023/07/18 03:22:49;;;;;;;5.60;1.20;;;;;;;12.05;86.71;99617.21;106732;1257;102153;-46
2023/07/18 03:25:20;;;;;;;3.70;1.10;;;;;;;12.11;86.41;99624.60;106918;1266;23508;-45
2023/07/18 03:27:50;;;;;;;1.70;0.90;;;;;;;12.10;86.50;99626.73;106789;1270;99127;-44
2023/07/18 03:30:19;;;;;;;4.60;1.50;;;;;;;12.11;86.42;99630.16;106597;1270;25932;-44
2023/07/18 03:32:50;;;;;;;4.00;1.20;;;;;;;12.12;86.31;99635.00;106809;1273;24213;-45
2023/07/18 03:35:19;;;;;;;3.60;1.20;;;;;;;12.10;86.86;99634.91;106841;1270;98955;-47
2023/07/18 03:37:48;;;;;;;3.30;1.30;;;;;;;12.11;87.09;99633.48;106702;1270;25363;-44
2023/07/18 03:40:17;;;;;;;3.00;1.40;;;;;;;12.14;87.17;99635.41;106876;1266;99182;-44
2023/07/18 03:42:46;;;;;;;6.60;1.50;;;;;;;12.19;87.45;99640.52;106609;1272;24065;-44
2023/07/18 03:45:15;;;;;;;2.20;1.20;;;;;;;12.23;87.44;99642.44;106567;1270;99397;-44
2023/07/18 03:47:44;;;;;;;3.80;1.60;;;;;;;12.25;87.70;99649.26;106781;1270;24046;-45
2023/07/18 03:50:18;;;;;;;2.40;1.40;;;;;;;12.29;87.87;99646.40;106785;1269;22534;-44
2023/07/18 03:52:47;;;;;;;9.00;1.50;;;;;;;12.35;88.33;99649.11;106861;1270;99108;-45
2023/07/18 03:55:16;;;;;;;3.30;1.50;;;;;;;12.35;88.09;99647.89;107110;1269;26518;-45
2023/07/18 03:57:45;;;;;;;4.20;1.30;;;;;;;12.36;87.89;99643.61;106784;1275;99700;-44
2023/07/18 04:00:17;;;;;;;3.60;1.20;;;;;;;12.42;88.35;99645.02;106759;1270;23519;-44
2023/07/18 04:02:48;;;;;;;2.30;1.10;;;;;;;12.50;88.04;99636.02;106914;1269;24274;-44
2023/07/18 04:05:17;;;;;;;2.90;1.10;;;;;;;12.56;88.25;99636.73;106853;1272;98989;-49
2023/07/18 04:07:47;;;;;;;4.30;1.30;;;;;;;12.60;87.86;99637.52;106643;1274;25291;-44
2023/07/18 04:10:16;;;;;;;3.90;1.60;;;;;;;12.67;88.05;99635.59;106693;1270;99356;-44
2023/07/18 04:12:44;;;;;;;2.30;1.10;;;;;;;12.77;88.30;99631.35;106740;1269;23215;-46
2023/07/18 04:15:14;;;;;;;4.30;1.40;;;;;;;12.89;88.38;99633.82;106831;1269;100246;-45
2023/07/18 04:17:43;;;;;;;3.10;1.50;;;;;;;13.01;88.74;99638.00;106970;1271;25221;-45
2023/07/18 04:20:13;;;;;;;4.10;1.20;;;;;;;13.11;88.58;99638.08;106727;1270;23260;-47
2023/07/18 04:22:42;;;;;;;3.40;1.30;;;;;;;13.22;88.54;99640.91;106808;1269;99137;-46
2023/07/18 04:25:11;;;;;;;3.10;1.30;;;;;;;13.35;88.95;99641.25;106634;1269;22517;-46
2023/07/18 04:27:40;;;;;;;3.50;1.70;;;;;;;13.48;88.90;99638.70;106642;1271;99317;-44
2023/07/18 04:30:10;;;;;;;3.20;1.50;;;;;;;13.59;88.72;99634.89;106772;1273;22529;-44
2023/07/18 04:32:41;;;;;;;4.90;2.00;;;;;;;13.71;88.85;99639.21;106610;1270;26480;-45
2023/07/18 04:35:10;;;;;;;6.50;1.50;;;;;;;13.85;88.83;99645.70;106802;1270;99200;-44
2023/07/18 04:37:40;;;;;;;2.70;1.20;;;;;;;13.94;88.71;99651.96;106849;1269;24214;-44
2023/07/18 04:40:10;;;;;;;5.20;1.50;;;;;;;14.04;89.02;99649.04;106532;1270;99240;-44
2023/07/18 04:42:38;;;;;;;3.50;1.70;;;;;;;14.11;89.24;99651.62;106899;1269;22566;-45
2023/07/18 04:45:07;;;;;;;5.20;2.10;;;;;;;14.23;89.31;99653.15;106556;1268;100009;-44
2023/07/18 04:47:36;;;;;;;3.50;1.50;;;;;;;14.36;89.35;99646.01;106709;1273;25334;-44
2023/07/18 04:50:06;;;;;;;3.20;1.70;;;;;;;14.45;89.39;99647.67;106945;1269;22795;-44
2023/07/18 04:52:37;;;;;;;4.80;1.60;;;;;;;14.58;89.40;99649.38;106759;1276;99131;-45
2023/07/18 04:55:06;;;;;;;6.50;1.30;;;;;;;14.68;89.36;99650.09;106873;1268;23869;-48
2023/07/18 04:57:34;;;;;;;4.40;1.60;;;;;;;14.79;89.40;99651.48;106618;1270;100053;-46
2023/07/18 05:00:05;;;;;;;4.50;1.30;;;;;;;14.87;89.29;99655.64;106878;1269;22535;-44
2023/07/18 05:02:33;;;;;;;3.30;1.50;;;;;;;14.92;89.16;99661.46;106823;1269;22584;-46
2023/07/18 05:05:03;;;;;;;4.10;1.80;;;;;;;14.97;89.43;99662.55;106787;1269;99713;-44
2023/07/18 05:07:31;;;;;;;6.00;1.60;;;;;;;15.07;89.56;99659.61;106808;1270;22539;-44
2023/07/18 05:09:59;;;;;;;2.90;1.40;;;;;;;15.16;89.90;99657.44;106773;1270;99158;-43
2023/07/18 05:12:28;;;;;;;5.40;1.70;;;;;;;15.26;89.95;99652.39;106742;1268;25311;-45
2023/07/18 05:14:57;;;;;;;4.80;1.60;;;;;;;15.39;90.09;99658.83;106790;1269;25353;-44
2023/07/18 05:17:25;;;;;;;9.60;1.60;;;;;;;15.60;90.34;99653.55;106818;1270;25450;-44
2023/07/18 05:19:55;;;;;;;4.70;1.40;;;;;;;15.87;90.41;99654.38;106793;1269;22654;-43
2023/07/18 05:22:24;;;;;;;12.20;2.00;;;;;;;16.07;90.41;99656.29;106667;1269;99126;-44
2023/07/18 05:24:53;;;;;;;5.20;1.60;;;;;;;16.38;90.71;99644.25;106870;1269;24062;-43
2023/07/18 05:27:21;;;;;;;3.70;1.40;;;;;;;16.71;90.45;99641.98;106784;1269;99283;-43
2023/07/18 05:29:50;;;;;;;3.50;1.20;;;;;;;17.00;90.21;99652.16;106784;1269;22522;-44
2023/07/18 05:32:19;;;;;;;4.10;1.50;;;;;;;17.16;89.32;99654.96;106784;1275;22526;-45
2023/07/18 05:34:49;;;;;;;3.20;1.40;;;;;;;17.31;89.41;99649.14;106638;1269;101016;-45
2023/07/18 05:37:18;;;;;;;3.30;1.40;;;;;;;17.56;89.48;99654.74;106873;1269;22531;-44
2023/07/18 05:39:46;;;;;;;4.20;2.00;;;;;;;17.54;88.50;99660.67;106710;1273;99305;-43
2023/07/18 05:42:15;;;;;;;6.00;1.60;;;;;;;17.54;88.33;99664.05;106811;1269;25349;-44
2023/07/18 05:44:44;;;;;;;5.70;1.90;;;;;;;17.62;88.65;99665.19;106757;1269;25908;-45
2023/07/18 05:47:12;;;;;;;3.00;1.50;;;;;;;17.71;88.31;99665.71;106662;1270;100267;-44
2023/07/18 05:49:41;;;;;;;4.40;1.70;;;;;;;17.75;87.86;99666.85;106713;1269;25423;-44
2023/07/18 05:52:10;;;;;;;4.20;1.40;;;;;;;17.63;87.46;99667.02;106738;1270;99688;-45
2023/07/18 05:54:45;;;;;;;5.60;1.60;;;;;;;17.57;87.63;99666.29;106881;1270;22521;-44
2023/07/18 05:57:19;;;;;;;2.90;1.30;;;;;;;17.55;88.00;99672.25;106767;1271;99398;-48
2023/07/18 05:59:48;;;;;;;3.90;1.30;;;;;;;17.53;87.51;99665.15;106964;1270;26773;-43
2023/07/18 06:02:17;;;;;;;3.80;1.70;;;;;;;17.54;87.72;99668.64;106741;1270;25241;-45
2023/07/18 06:04:47;;;;;;;2.90;1.40;;;;;;;17.63;88.49;99674.77;107186;1267;99102;-44
2023/07/18 06:07:16;;;;;;;3.80;1.50;;;;;;;17.72;87.83;99675.84;107000;1270;23304;-44
2023/07/18 06:09:54;;;;;;;5.00;1.70;;;;;;;17.82;88.16;99679.84;107033;1270;99162;-44
2023/07/18 06:12:23;;;;;;;7.00;1.50;;;;;;;18.03;88.11;99679.22;106850;1274;22731;-44
2023/07/18 06:14:54;;;;;;;5.50;1.50;;;;;;;18.21;87.51;99680.16;107011;1276;22538;-44
2023/07/18 06:17:35;;;;;;;4.60;1.70;;;;;;;18.47;87.45;99679.45;107389;1270;98849;-44
2023/07/18 06:20:14;;;;;;;3.90;1.50;;;;;;;18.74;87.60;99686.83;107043;1272;22540;-43
2023/07/18 06:22:47;;;;;;;3.90;1.20;;;;;;;19.07;87.51;99689.19;107066;1270;99127;-44
2023/07/18 06:25:29;;;;;;;3.70;1.30;;;;;;;19.26;86.36;99690.42;106802;1269;22530;-44
2023/07/18 06:27:58;;;;;;;3.80;1.80;;;;;;;19.06;84.26;99695.31;107164;1270;99547;-45
2023/07/18 06:30:27;;;;;;;8.20;1.40;;;;;;;18.70;84.08;99703.50;106910;1270;22742;-44
2023/07/18 06:32:56;;;;;;;3.80;1.20;;;;;;;18.07;83.92;99712.38;106883;1276;24392;-45
2023/07/18 06:35:28;;;;;;;5.00;1.40;;;;;;;17.61;84.90;99716.15;106890;1270;24340;-44
2023/07/18 06:37:56;;;;;;;3.40;1.30;;;;;;;17.32;85.14;99710.58;107048;1270;25352;-44
2023/07/18 06:40:25;;;;;;;3.70;1.60;;;;;;;17.06;85.50;99715.88;107036;1270;99102;-44
2023/07/18 06:42:54;;;;;;;4.40;1.20;;;;;;;16.99;86.11;99722.04;106951;1266;22762;-44
2023/07/18 06:45:32;;;;;;;5.10;1.70;;;;;;;16.97;86.49;99720.79;107009;1270;99278;-45
2023/07/18 06:48:02;;;;;;;5.70;1.50;;;;;;;17.23;87.50;99720.21;106898;1270;22525;-44
2023/07/18 06:50:31;;;;;;;2.90;1.20;;;;;;;17.85;88.62;99717.47;107364;1270;23060;-44
2023/07/18 06:53:02;;;;;;;5.40;1.50;;;;;;;18.45;87.82;99714.89;106896;1270;100623;-44
2023/07/18 06:55:57;;;;;;;6.70;1.40;;;;;;;18.77;86.18;99712.35;106793;1272;22526;-45
2023/07/18 06:58:26;;;;;;;2.80;1.20;;;;;;;18.77;85.04;99714.26;107092;1270;99163;-43
2023/07/18 07:00:55;;;;;;;4.60;1.60;;;;;;;18.86;85.78;99720.02;107255;1273;22575;-44
2023/07/18 07:03:23;;;;;;;4.00;1.40;;;;;;;19.43;86.54;99719.90;107231;1270;99785;-45
2023/07/18 07:05:55;;;;;;;4.50;1.50;;;;;;;19.99;85.84;99717.63;106908;1271;25595;-45
2023/07/18 07:08:24;;;;;;;3.40;1.60;;;;;;;20.46;85.53;99716.52;106744;1270;22531;-44
2023/07/18 07:11:04;;;;;;;4.60;1.10;;;;;;;21.26;85.80;99714.17;106935;1270;99594;-45
2023/07/18 07:13:34;;;;;;;4.70;1.70;;;;;;;22.06;84.68;99716.60;106914;1270;22766;-46
2023/07/18 07:16:04;;;;;;;3.40;1.20;;;;;;;22.85;85.16;99717.27;106773;1268;100172;-48
2023/07/18 07:18:32;;;;;;;6.30;1.50;;;;;;;23.91;84.62;99712.55;106861;1269;25242;-44
2023/07/18 07:21:02;;;;;;;3.80;1.20;;;;;;;24.90;83.72;99708.64;106904;1271;22902;-46
2023/07/18 07:23:31;;;;;;;6.20;1.60;;;;;;;25.94;82.36;99711.58;106826;1258;23017;-45
2023/07/18 07:26:00;;;;;;;7.30;1.90;;;;;;;26.78;80.86;99712.34;106943;1275;22531;-46
2023/07/18 07:28:28;;;;;;;2.80;1.20;;;;;;;27.15;77.78;99717.72;106449;1271;99305;-46
2023/07/18 07:31:01;;;;;;;6.80;1.60;;;;;;;27.09;75.36;99721.55;106794;1270;25306;-45
2023/07/18 07:33:29;;;;;;;4.80;1.30;;;;;;;26.90;75.32;99726.17;106670;1273;99769;-45
2023/07/18 07:35:59;;;;;;;3.00;1.30;;;;;;;27.21;76.61;99720.25;106899;1270;22527;-45
2023/07/18 07:38:27;;;;;;;6.00;1.80;;;;;;;28.05;76.34;99721.86;106804;1270;25404;-45
2023/07/18 07:40:56;;;;;;;3.90;1.30;;;;;;;28.16;72.94;99723.14;106750;1269;99222;-46
2023/07/18 07:43:25;;;;;;;10.50;1.60;;;;;;;27.81;70.86;99721.90;106505;1271;25348;-46
2023/07/18 07:45:54;;;;;;;3.40;1.50;;;;;;;27.31;71.23;99720.02;106446;1270;99459;-46
2023/07/18 07:48:24;;;;;;;4.40;1.60;;;;;;;26.30;70.67;99717.90;106892;1272;22550;-47
2023/07/18 07:50:52;;;;;;;4.70;1.50;;;;;;;25.38;69.62;99719.31;106717;1272;22915;-45
2023/07/18 07:53:21;;;;;;;8.40;1.30;;;;;;;24.51;69.87;99721.16;106768;1263;98977;-45
2023/07/18 07:55:50;;;;;;;4.50;1.60;;;;;;;23.80;69.75;99725.21;106777;1269;23880;-44
2023/07/18 07:58:18;;;;;;;5.40;1.50;;;;;;;23.10;70.03;99731.37;106676;1269;99160;-46
2023/07/18 08:00:47;;;;;;;4.60;1.10;;;;;;;22.51;69.87;99740.48;106867;1270;25379;-46
2023/07/18 08:03:16;;;;;;;3.50;1.60;;;;;;;21.97;69.99;99745.92;106577;1275;229452;-45
2023/07/18 08:05:45;;;;;;;3.90;1.40;;;;;;;21.52;69.96;99745.73;106822;1269;22523;-46
2023/07/18 08:08:13;;;;;;;4.70;1.70;;;;;;;21.08;69.42;99746.95;106805;1270;25556;-44
2023/07/18 08:10:42;;;;;;;4.50;1.80;;;;;;;20.77;70.44;99752.94;106674;1270;99869;-44
2023/07/18 08:13:11;;;;;;;3.60;1.20;;;;;;;21.08;70.23;99754.89;106781;1269;25419;-44
2023/07/18 08:15:40;;;;;;;6.70;1.40;;;;;;;21.52;71.36;99748.92;106732;1269;99315;-45
2023/07/18 08:18:08;;;;;;;9.40;1.50;;;;;;;23.24;72.81;99745.46;106800;1269;22649;-45
2023/07/18 08:20:37;;;;;;;6.60;1.50;;;;;;;24.25;69.05;99746.52;106850;1273;22549;-45
2023/07/18 08:23:06;;;;;;;5.10;1.70;;;;;;;24.54;68.37;99748.09;106758;1269;98974;-45
2023/07/18 08:25:35;;;;;;;3.80;1.50;;;;;;;24.78;68.05;99748.11;106812;1270;24403;-46
2023/07/18 08:28:04;;;;;;;6.60;1.60;;;;;;;25.19;68.87;99749.41;106969;1269;99661;-46
2023/07/18 08:30:32;;;;;;;6.20;1.50;;;;;;;26.35;68.61;99741.06;106729;1270;22536;-45
2023/07/18 08:33:01;;;;;;;4.70;1.30;;;;;;;27.27;67.02;99738.00;106837;1271;25295;-46
2023/07/18 08:35:30;;;;;;;4.40;1.60;;;;;;;28.74;65.69;99730.70;106741;1272;99450;-46
2023/07/18 08:37:58;;;;;;;4.20;1.30;;;;;;;29.79;65.45;99731.68;106876;1269;22886;-50
2023/07/18 08:40:27;;;;;;;6.70;1.70;;;;;;;30.01;62.54;99719.73;106786;1257;99413;-49
2023/07/18 08:42:56;;;;;;;4.80;1.60;;;;;;;30.09;62.54;99726.20;106876;1269;22527;-46
2023/07/18 08:45:31;;;;;;;5.60;1.30;;;;;;;29.27;59.37;99734.33;106747;1270;99425;-46
2023/07/18 08:47:59;;;;;;;3.20;1.20;;;;;;;27.72;58.74;99748.70;106843;1273;25297;-46
2023/07/18 08:50:29;;;;;;;4.50;1.20;;;;;;;25.77;59.08;99752.27;106791;1269;22524;-47
2023/07/18 08:52:57;;;;;;;4.50;1.20;;;;;;;23.83;58.79;99750.64;106662;1272;99159;-47
2023/07/18 08:55:29;;;;;;;3.90;1.00;;;;;;;22.34;60.10;99745.58;106753;1273;22539;-46
2023/07/18 08:57:59;;;;;;;6.00;1.40;;;;;;;21.67;62.34;99751.58;106691;1270;99694;-46
2023/07/18 09:00:28;;;;;;;5.90;1.70;;;;;;;23.01;65.65;99752.38;106826;1269;22524;-45
2023/07/18 09:02:56;;;;;;;5.40;1.40;;;;;;;25.27;63.46;99745.99;106781;1268;24417;-50
2023/07/18 09:05:34;;;;;;;4.80;1.40;;;;;;;25.61;59.61;99744.75;106777;1269;99444;-47
2023/07/18 09:08:06;;;;;;;3.90;1.10;;;;;;;25.04;59.12;99748.54;106888;1269;25334;-46
2023/07/18 09:10:35;;;;;;;4.90;1.20;;;;;;;24.47;59.55;99746.05;106683;1265;99206;-47
2023/07/18 09:13:05;;;;;;;2.10;1.20;;;;;;;24.10;59.38;99745.44;106806;1276;22520;-46
2023/07/18 09:15:36;;;;;;;3.60;1.40;;;;;;;23.47;59.23;99749.52;106716;1272;99828;-45
2023/07/18 09:18:08;;;;;;;2.50;1.00;;;;;;;22.85;59.12;99747.67;106802;1273;25371;-45
2023/07/18 09:20:39;;;;;;;3.40;1.40;;;;;;;22.24;59.10;99741.35;106915;1268;22546;-46
2023/07/18 09:23:09;;;;;;;3.00;1.20;;;;;;;21.57;59.19;99740.36;106645;1269;99648;-45
2023/07/18 09:25:39;;;;;;;5.60;1.70;;;;;;;21.27;59.70;99741.69;106891;1262;24243;-46
2023/07/18 09:28:13;;;;;;;4.10;1.20;;;;;;;22.35;63.47;99737.48;106629;1269;99202;-47
2023/07/18 09:30:43;;;;;;;6.80;1.60;;;;;;;25.37;63.44;99732.05;106674;1269;25482;-47
2023/07/18 09:33:25;;;;;;;4.40;1.40;;;;;;;27.87;60.58;99728.30;106612;1273;99292;-47
2023/07/18 09:35:58;;;;;;;5.00;1.60;;;;;;;29.69;58.94;99713.87;106798;1272;23172;-48
2023/07/18 09:38:28;;;;;;;4.60;1.40;;;;;;;30.67;57.35;99712.36;106901;1272;22520;-47
2023/07/18 09:40:57;;;;;;;4.20;1.60;;;;;;;30.59;55.47;99723.83;106814;1269;99106;-48
2023/07/18 09:43:28;;;;;;;4.10;1.10;;;;;;;29.63;54.23;99724.60;106866;1269;22523;-47
2023/07/18 09:45:59;;;;;;;6.30;2.10;;;;;;;28.33;54.32;99726.15;106740;1269;99580;-47
2023/07/18 09:48:29;;;;;;;8.40;2.30;;;;;;;26.61;54.20;99731.22;107111;1269;52091;-46
2023/07/18 09:51:20;;;;;;;5.20;1.70;;;;;;;22.98;54.70;99741.36;107158;1269;99945;-47
2023/07/18 09:53:51;;;;;;;4.30;1.50;;;;;;;20.15;58.47;99753.17;106864;1269;24212;-46
2023/07/18 09:56:20;;;;;;;6.40;2.00;;;;;;;19.41;63.40;99753.94;106889;1269;28228;-46
2023/07/18 09:58:56;;;;;;;4.60;1.90;;;;;;;21.01;67.47;99744.71;106737;1269;99760;-46
2023/07/18 10:01:26;;;;;;;9.80;1.80;;;;;;;22.39;67.81;99739.25;106772;1269;25346;-47
2023/07/18 10:03:58;;;;;;;3.10;1.20;;;;;;;23.73;66.14;99734.23;106747;1268;100141;-46
2023/07/18 10:06:28;;;;;;;4.60;1.40;;;;;;;25.17;64.36;99728.39;106910;1269;22622;-47
2023/07/18 10:09:01;;;;;;;6.90;1.50;;;;;;;26.62;62.46;99729.45;106874;1272;25393;-49
2023/07/18 10:11:31;;;;;;;3.80;1.20;;;;;;;28.08;61.75;99728.92;106636;1269;22528;-47
2023/07/18 10:14:06;;;;;;;3.60;1.30;;;;;;;29.86;61.63;99726.39;106946;1268;25379;-47
2023/07/18 10:16:35;;;;;;;3.00;1.10;;;;;;;31.55;59.77;99722.29;106764;1269;100583;-47
2023/07/18 10:19:24;;;;;;;3.60;1.10;;;;;;;32.81;58.83;99719.06;107313;1271;24229;-51
2023/07/18 10:21:56;;;;;;;5.60;1.60;;;;;;;32.68;57.14;99721.79;106985;1274;99058;-47
2023/07/18 10:24:28;;;;;;;4.20;1.30;;;;;;;31.84;57.34;99724.65;106630;1269;25348;-47
2023/07/18 10:27:07;;;;;;;4.10;1.00;;;;;;;31.37;55.14;99724.96;107158;1269;22647;-46
2023/07/18 10:29:41;;;;;;;3.00;1.10;;;;;;;30.34;55.57;99729.40;106701;1268;23008;-47
2023/07/18 10:32:12;;;;;;;3.20;1.00;;;;;;;29.33;53.86;99729.09;106779;1269;22535;-45
2023/07/18 10:34:52;;;;;;;4.40;1.10;;;;;;;27.87;54.03;99734.10;106725;1269;100195;-46
2023/07/18 10:37:26;;;;;;;4.70;1.20;;;;;;;26.39;53.87;99744.84;106910;1269;24330;-46
2023/07/18 10:39:55;;;;;;;4.30;1.20;;;;;;;25.04;54.43;99746.85;106752;1270;99350;-44
2023/07/18 10:42:28;;;;;;;4.30;1.10;;;;;;;24.66;56.62;99747.34;106974;1269;25288;-44
2023/07/18 10:45:07;;;;;;;4.70;1.60;;;;;;;25.66;56.27;99740.00;107278;1268;24348;-46
2023/07/18 10:47:37;;;;;;;4.20;1.60;;;;;;;25.43;54.72;99745.58;106987;1269;22787;-46
2023/07/18 10:50:07;;;;;;;2.50;1.00;;;;;;;25.05;55.37;99743.92;106917;1269;25520;-45
2023/07/18 10:52:36;;;;;;;3.20;1.20;;;;;;;26.42;57.54;99733.98;106887;1266;99656;-45
2023/07/18 10:55:06;;;;;;;3.50;1.10;;;;;;;28.79;56.22;99726.58;106924;1269;22541;-46
2023/07/18 10:57:38;;;;;;;3.60;1.50;;;;;;;30.76;54.69;99722.55;106749;1272;99330;-45
2023/07/18 11:00:07;;;;;;;6.40;2.00;;;;;;;32.31;53.96;99716.15;106978;1269;25342;-47
2023/07/18 11:02:39;;;;;;;4.00;1.30;;;;;;;33.70;53.49;99711.34;106945;1269;22591;-45
2023/07/18 11:05:11;;;;;;;3.80;1.00;;;;;;;34.75;49.49;99701.15;106760;1269;99235;-45
2023/07/18 11:07:43;;;;;;;4.30;1.40;;;;;;;35.26;49.78;99700.52;106697;1270;24204;-45
2023/07/18 11:10:13;;;;;;;4.30;1.30;;;;;;;35.46;47.09;99698.58;106762;1269;99145;-47
2023/07/18 11:12:42;;;;;;;3.00;1.10;;;;;;;34.92;46.69;99694.44;106954;1267;22679;-45
2023/07/18 11:15:12;;;;;;;3.10;1.10;;;;;;;34.71;47.63;99692.11;106797;1269;99826;-47
2023/07/18 11:17:43;;;;;;;6.40;1.20;;;;;;;35.11;46.91;99695.80;106670;1272;24196;-46
2023/07/18 11:20:12;;;;;;;4.20;1.30;;;;;;;34.81;45.85;99694.27;106886;1269;22722;-46
2023/07/18 11:22:41;;;;;;;5.10;1.10;;;;;;;34.37;45.66;99691.77;106798;1269;99115;-45
2023/07/18 11:25:11;;;;;;;3.40;1.20;;;;;;;34.64;45.02;99685.26;106861;1269;25373;-45
2023/07/18 11:27:40;;;;;;;8.80;1.30;;;;;;;34.02;44.09;99684.89;106791;1269;99761;-47
2023/07/18 11:30:09;;;;;;;5.20;1.40;;;;;;;32.77;43.06;99678.92;106905;1269;25293;-45
2023/07/18 11:32:42;;;;;;;4.30;1.40;;;;;;;31.35;42.68;99683.17;106873;1269;22481;-46
2023/07/18 11:35:18;;;;;;;2.60;0.90;;;;;;;30.21;42.40;99686.82;106816;1269;99177;-46
2023/07/18 11:37:51;;;;;;;2.80;1.10;;;;;;;28.96;42.30;99689.05;106882;1269;23917;-44